createdAt,value
2022-12-25T00:00:39.984Z,34.95
2022-12-25T00:03:42.767Z,35.06
2022-12-25T00:06:45.040Z,35.21
2022-12-25T00:09:47.158Z,35.06
2022-12-25T00:12:49.701Z,35.08
2022-12-25T00:15:51.939Z,35.19
2022-12-25T00:18:54.252Z,34.67
2022-12-25T00:21:56.385Z,34.99
2022-12-25T00:24:58.553Z,34.95
2022-12-25T00:28:00.715Z,35.04
2022-12-25T00:31:11.376Z,35.09
2022-12-25T00:34:13.606Z,35.08
2022-12-25T00:37:15.804Z,35.34
2022-12-25T00:40:17.982Z,35.07
2022-12-25T00:43:20.165Z,35.05
2022-12-25T00:46:22.369Z,35.13
2022-12-25T00:49:24.712Z,35.17
2022-12-25T00:52:26.891Z,35.20
2022-12-25T00:55:30.900Z,35.16
2022-12-25T00:58:34.178Z,35.23
2022-12-25T01:01:36.589Z,35.09
2022-12-25T01:04:38.841Z,35.16
2022-12-25T01:07:41.071Z,35.30
2022-12-25T01:10:43.251Z,35.23
2022-12-25T01:13:45.935Z,35.06
2022-12-25T01:16:48.189Z,35.23
2022-12-25T01:19:50.713Z,34.99
2022-12-25T01:22:53.219Z,35.25
2022-12-25T01:25:56.115Z,35.06
2022-12-25T01:28:58.251Z,34.93
2022-12-25T01:32:00.438Z,35.11
2022-12-25T01:35:02.762Z,35.38
2022-12-25T01:38:04.898Z,35.24
2022-12-25T01:41:07.266Z,35.14
2022-12-25T01:44:35.296Z,35.24
2022-12-25T01:47:37.657Z,35.39
2022-12-25T01:50:42.732Z,34.89
2022-12-25T01:53:44.917Z,35.46
2022-12-25T01:56:48.340Z,35.44
2022-12-25T01:59:50.556Z,35.22
2022-12-25T02:02:52.827Z,35.40
2022-12-25T02:05:55.183Z,35.29
2022-12-25T02:09:00.168Z,35.17
2022-12-25T02:12:02.422Z,35.15
2022-12-25T02:15:10.757Z,35.13
2022-12-25T02:18:21.139Z,35.31
2022-12-25T02:21:26.388Z,35.18
2022-12-25T02:24:35.514Z,35.20
2022-12-25T02:27:37.576Z,35.07
2022-12-25T02:30:44.676Z,35.13
2022-12-25T02:34:04.485Z,35.08
2022-12-25T02:37:13.217Z,35.20
2022-12-25T02:40:37.327Z,35.22
2022-12-25T02:43:59.970Z,35.41
2022-12-25T02:47:21.199Z,35.37
2022-12-25T02:50:43.748Z,35.16
2022-12-25T02:54:04.846Z,35.30
2022-12-25T02:57:27.581Z,35.29
2022-12-25T03:00:50.383Z,35.15
2022-12-25T03:04:13.666Z,35.22
2022-12-25T03:07:19.472Z,35.38
2022-12-25T03:10:40.452Z,35.19
2022-12-25T03:13:44.914Z,35.07
2022-12-25T03:16:53.054Z,35.21
2022-12-25T03:20:13.590Z,35.25
2022-12-25T03:23:37.884Z,35.25
2022-12-25T03:26:55.151Z,35.10
2022-12-25T03:30:15.584Z,35.17
2022-12-25T03:34:17.437Z,35.41
2022-12-25T03:37:46.017Z,35.27
2022-12-25T03:41:20.983Z,35.13
2022-12-25T03:44:54.230Z,35.13
2022-12-25T03:48:15.573Z,35.24
2022-12-25T03:51:39.556Z,35.19
2022-12-25T03:55:02.298Z,35.25
2022-12-25T03:58:23.158Z,35.21
2022-12-25T04:01:44.069Z,35.32
2022-12-25T04:05:04.843Z,35.07
2022-12-25T04:08:25.639Z,35.19
2022-12-25T04:11:46.008Z,35.34
2022-12-25T04:15:06.818Z,35.41
2022-12-25T04:18:27.574Z,35.19
2022-12-25T04:21:48.007Z,35.15
2022-12-25T04:25:08.519Z,35.18
2022-12-25T04:28:29.174Z,35.39
2022-12-25T04:31:49.583Z,35.16
2022-12-25T04:35:10.472Z,35.43
2022-12-25T04:38:12.577Z,35.31
2022-12-25T04:41:14.816Z,35.17
2022-12-25T04:44:16.963Z,35.38
2022-12-25T04:47:19.160Z,35.34
2022-12-25T04:50:21.310Z,35.13
2022-12-25T04:53:23.495Z,35.21
2022-12-25T04:56:25.701Z,35.08
2022-12-25T04:59:27.881Z,35.16
2022-12-25T05:02:30.233Z,35.29
2022-12-25T05:05:32.584Z,35.19
2022-12-25T05:08:35.698Z,35.24
2022-12-25T05:11:37.896Z,35.22
2022-12-25T05:14:40.150Z,35.40
2022-12-25T05:17:42.305Z,35.24
2022-12-25T05:20:54.656Z,35.45
2022-12-25T05:23:56.831Z,35.33
2022-12-25T05:26:58.971Z,35.22
2022-12-25T05:30:01.092Z,35.22
2022-12-25T05:33:03.648Z,35.28
2022-12-25T05:36:07.511Z,35.18
2022-12-25T05:39:09.686Z,35.18
2022-12-25T05:42:11.822Z,35.15
2022-12-25T05:45:14.013Z,35.07
2022-12-25T05:48:16.475Z,35.11
2022-12-25T05:51:19.800Z,35.13
2022-12-25T05:54:21.882Z,35.23
2022-12-25T05:57:23.981Z,35.13
2022-12-25T06:00:26.110Z,35.25
2022-12-25T06:03:28.363Z,35.21
2022-12-25T06:06:30.670Z,35.02
2022-12-25T06:09:32.777Z,34.77
2022-12-25T06:12:34.903Z,34.90
2022-12-25T06:15:40.953Z,35.21
2022-12-25T06:18:46.650Z,34.83
2022-12-25T06:21:48.917Z,35.12
2022-12-25T06:24:51.511Z,35.12
2022-12-25T06:27:53.693Z,35.11
2022-12-25T06:30:56.520Z,35.04
2022-12-25T06:33:58.619Z,35.07
2022-12-25T06:37:00.702Z,34.76
2022-12-25T06:40:02.887Z,34.82
2022-12-25T06:43:04.985Z,34.92
2022-12-25T06:46:09.970Z,34.88
2022-12-25T06:49:12.355Z,34.75
2022-12-25T06:52:14.521Z,34.90
2022-12-25T06:55:16.762Z,34.97
2022-12-25T06:58:19.056Z,34.70
2022-12-25T07:01:34.338Z,34.84
2022-12-25T07:04:40.909Z,34.64
2022-12-25T07:07:43.089Z,34.60
2022-12-25T07:10:45.189Z,34.77
2022-12-25T07:13:47.448Z,34.77
2022-12-25T07:16:50.177Z,34.54
2022-12-25T07:19:52.691Z,34.76
2022-12-25T07:22:54.859Z,34.67
2022-12-25T07:25:58.768Z,34.56
2022-12-25T07:29:01.009Z,34.81
2022-12-25T07:32:03.407Z,34.66
2022-12-25T07:35:05.926Z,34.90
2022-12-25T07:38:08.132Z,34.56
2022-12-25T07:41:11.755Z,34.55
2022-12-25T07:44:13.875Z,34.50
2022-12-25T07:47:16.506Z,34.58
2022-12-25T07:50:18.629Z,34.71
2022-12-25T07:53:20.739Z,34.39
2022-12-25T07:56:23.221Z,34.82
2022-12-25T07:59:25.497Z,34.83
2022-12-25T08:02:29.078Z,34.54
2022-12-25T08:05:33.001Z,34.56
2022-12-25T08:08:36.212Z,34.62
2022-12-25T08:11:38.997Z,34.89
2022-12-25T08:14:41.181Z,34.61
2022-12-25T08:17:43.359Z,34.65
2022-12-25T08:20:45.438Z,34.66
2022-12-25T08:23:48.312Z,34.70
2022-12-25T08:26:52.870Z,34.73
2022-12-25T08:29:55.045Z,34.69
2022-12-25T08:32:57.245Z,34.53
2022-12-25T08:36:04.980Z,34.54
2022-12-25T08:39:10.374Z,34.66
2022-12-25T08:42:12.565Z,34.59
2022-12-25T08:45:14.728Z,34.84
2022-12-25T08:48:16.904Z,34.74
2022-12-25T08:51:21.171Z,34.52
2022-12-25T08:54:24.725Z,34.70
2022-12-25T08:57:26.868Z,34.57
2022-12-25T09:00:29.306Z,34.58
2022-12-25T09:03:34.977Z,34.80
2022-12-25T09:06:37.207Z,34.70
2022-12-25T09:09:39.748Z,34.72
2022-12-25T09:12:41.876Z,34.61
2022-12-25T09:15:44.162Z,34.75
2022-12-25T09:18:46.616Z,34.82
2022-12-25T09:21:48.844Z,34.68
2022-12-25T09:24:51.011Z,34.80
2022-12-25T09:27:53.157Z,34.91
2022-12-25T09:30:55.686Z,34.84
2022-12-25T09:33:58.221Z,34.78
2022-12-25T09:37:02.345Z,34.75
2022-12-25T09:40:05.026Z,34.98
2022-12-25T09:43:11.014Z,34.75
2022-12-25T09:46:20.531Z,34.94
2022-12-25T09:49:39.290Z,34.99
2022-12-25T09:52:46.455Z,34.77
2022-12-25T09:55:57.022Z,34.75
2022-12-25T09:58:59.338Z,35.04
2022-12-25T10:02:21.981Z,34.65
2022-12-25T10:05:43.114Z,34.80
2022-12-25T10:08:56.522Z,34.89
2022-12-25T10:12:27.054Z,34.86
2022-12-25T10:15:45.847Z,34.72
2022-12-25T10:18:57.361Z,34.85
2022-12-25T10:22:02.914Z,35.10
2022-12-25T10:25:07.116Z,34.98
2022-12-25T10:28:15.383Z,34.85
2022-12-25T10:31:26.487Z,34.79
2022-12-25T10:34:28.879Z,35.08
2022-12-25T10:37:31.055Z,35.06
2022-12-25T10:40:39.173Z,34.86
2022-12-25T10:43:49.272Z,35.05
2022-12-25T10:46:54.643Z,35.17
2022-12-25T10:49:57.246Z,34.88
2022-12-25T10:53:05.163Z,35.07
2022-12-25T10:56:07.902Z,35.21
2022-12-25T10:59:11.058Z,35.58
2022-12-25T11:02:35.088Z,34.96
2022-12-25T11:05:37.477Z,34.87
2022-12-25T11:08:39.692Z,34.79
2022-12-25T11:11:41.926Z,34.75
2022-12-25T11:14:53.228Z,34.55
2022-12-25T11:17:55.473Z,34.52
2022-12-25T11:21:00.051Z,34.84
2022-12-25T11:24:07.477Z,34.68
2022-12-25T11:27:27.606Z,34.57
2022-12-25T11:30:31.416Z,34.79
2022-12-25T11:33:37.638Z,34.60
2022-12-25T11:36:50.828Z,34.56
2022-12-25T11:39:55.704Z,34.75
2022-12-25T11:43:08.173Z,34.68
2022-12-25T11:46:16.402Z,34.64
2022-12-25T11:49:19.820Z,34.86
2022-12-25T11:52:22.878Z,34.64
2022-12-25T11:55:37.123Z,34.33
2022-12-25T11:58:44.235Z,34.43
2022-12-25T12:01:55.050Z,34.48
2022-12-25T12:05:24.081Z,34.28
2022-12-25T12:08:26.312Z,34.39
2022-12-25T12:11:33.684Z,34.27
2022-12-25T12:14:45.918Z,34.33
2022-12-25T12:17:48.084Z,34.31
2022-12-25T12:21:04.878Z,34.15
2022-12-25T12:24:18.589Z,34.24
2022-12-25T12:27:36.246Z,34.15
2022-12-25T12:30:38.468Z,34.17
2022-12-25T12:33:49.511Z,34.09
2022-12-25T12:36:58.503Z,34.12
2022-12-25T12:40:01.405Z,34.18
2022-12-25T12:43:04.684Z,34.13
2022-12-25T12:46:30.079Z,34.23
2022-12-25T12:49:33.635Z,34.31
2022-12-25T12:52:37.574Z,34.28
2022-12-25T12:55:39.730Z,34.20
2022-12-25T12:58:52.236Z,34.25
2022-12-25T13:02:26.775Z,34.50
2022-12-25T13:05:34.157Z,34.34
2022-12-25T13:09:09.225Z,34.77
2022-12-25T13:12:12.578Z,34.72
2022-12-25T13:15:15.006Z,34.64
2022-12-25T13:18:17.625Z,34.62
2022-12-25T13:21:23.215Z,34.48
2022-12-25T13:24:27.668Z,34.84
2022-12-25T13:27:32.519Z,34.91
2022-12-25T13:30:34.661Z,34.88
2022-12-25T13:33:37.632Z,35.21
2022-12-25T13:36:40.268Z,34.98
2022-12-25T13:40:04.022Z,34.95
2022-12-25T13:43:06.614Z,34.99
2022-12-25T13:46:12.848Z,35.14
2022-12-25T13:49:17.608Z,34.80
2022-12-25T13:52:31.813Z,35.15
2022-12-25T13:55:33.935Z,34.99
2022-12-25T13:58:37.173Z,35.21
2022-12-25T14:01:43.134Z,35.02
2022-12-25T14:04:45.768Z,35.16
2022-12-25T14:07:53.157Z,35.20
2022-12-25T14:10:55.833Z,35.03
2022-12-25T14:14:21.776Z,35.14
2022-12-25T14:17:24.580Z,35.28
2022-12-25T14:20:32.622Z,35.12
2022-12-25T14:23:43.147Z,35.12
2022-12-25T14:26:45.402Z,35.33
2022-12-25T14:29:49.063Z,35.30
2022-12-25T14:32:53.854Z,35.49
2022-12-25T14:35:56.566Z,35.57
2022-12-25T14:39:03.920Z,35.38
2022-12-25T14:42:41.935Z,35.48
2022-12-25T14:45:54.431Z,35.44
2022-12-25T14:49:04.437Z,35.50
2022-12-25T14:52:21.457Z,35.33
2022-12-25T14:55:27.203Z,35.55
2022-12-25T14:58:31.225Z,35.77
2022-12-25T15:01:41.062Z,35.75
2022-12-25T15:04:44.097Z,35.70
2022-12-25T15:07:46.346Z,35.57
2022-12-25T15:11:04.715Z,35.64
2022-12-25T15:14:07.026Z,35.65
2022-12-25T15:17:26.282Z,35.63
2022-12-25T15:20:32.009Z,35.57
2022-12-25T15:23:34.133Z,35.70
2022-12-25T15:26:36.317Z,35.63
2022-12-25T15:30:08.568Z,35.61
2022-12-25T15:33:00.561Z,35.86
2022-12-25T15:36:02.750Z,35.79
2022-12-25T15:39:04.896Z,35.70
2022-12-25T15:42:19.555Z,35.79
2022-12-25T15:45:24.498Z,35.85
2022-12-25T15:48:26.634Z,35.88
2022-12-25T15:51:28.927Z,35.83
2022-12-25T15:54:32.319Z,35.81
2022-12-25T15:57:35.124Z,35.79
2022-12-25T16:00:37.334Z,35.66
2022-12-25T16:03:39.520Z,35.78
2022-12-25T16:06:41.826Z,35.67
2022-12-25T16:09:44.322Z,35.84
2022-12-25T16:12:46.853Z,35.83
2022-12-25T16:15:51.392Z,35.77
2022-12-25T16:18:53.569Z,35.77
2022-12-25T16:21:55.928Z,35.94
2022-12-25T16:24:58.085Z,35.79
2022-12-25T16:28:03.041Z,36.00
2022-12-25T16:31:05.424Z,35.94
2022-12-25T16:34:08.161Z,35.89
2022-12-25T16:37:10.438Z,36.02
2022-12-25T16:40:12.754Z,35.78
2022-12-25T16:43:20.296Z,35.91
2022-12-25T16:46:25.950Z,35.88
2022-12-25T16:49:28.155Z,35.79
2022-12-25T16:52:34.722Z,35.92
2022-12-25T16:55:39.986Z,35.91
2022-12-25T16:58:46.701Z,35.85
2022-12-25T17:01:49.024Z,35.78
2022-12-25T17:04:51.206Z,36.08
2022-12-25T17:07:53.349Z,35.83
2022-12-25T17:10:55.922Z,36.01
2022-12-25T17:14:03.635Z,36.03
2022-12-25T17:17:05.860Z,35.80
2022-12-25T17:20:08.444Z,35.82
2022-12-25T17:23:10.607Z,36.00
2022-12-25T17:26:12.766Z,35.86
2022-12-25T17:29:20.101Z,35.95
2022-12-25T17:32:24.359Z,35.98
2022-12-25T17:35:26.517Z,36.07
2022-12-25T17:38:30.589Z,36.10
2022-12-25T17:41:33.011Z,36.04
2022-12-25T17:44:35.181Z,35.89
2022-12-25T17:47:37.326Z,35.91
2022-12-25T17:50:41.596Z,35.90
2022-12-25T17:53:46.511Z,35.89
2022-12-25T17:56:49.438Z,36.06
2022-12-25T17:59:51.676Z,35.83
2022-12-25T18:02:56.638Z,36.04
2022-12-25T18:06:06.233Z,35.80
2022-12-25T18:09:09.727Z,35.94
2022-12-25T18:12:11.919Z,36.21
2022-12-25T18:15:14.072Z,36.03
2022-12-25T18:18:16.195Z,36.01
2022-12-25T18:21:18.383Z,36.06
2022-12-25T18:24:20.494Z,36.20
2022-12-25T18:27:22.829Z,36.02
2022-12-25T18:30:25.037Z,36.17
2022-12-25T18:33:27.589Z,36.06
2022-12-25T18:36:30.362Z,36.02
2022-12-25T18:39:33.365Z,36.14
2022-12-25T18:42:41.394Z,36.10
2022-12-25T18:45:44.061Z,36.04
2022-12-25T18:48:46.269Z,35.95
2022-12-25T18:51:48.886Z,36.01
2022-12-25T18:54:51.078Z,36.13
2022-12-25T18:57:53.396Z,36.16
2022-12-25T19:00:55.825Z,36.05
2022-12-25T19:04:04.458Z,35.93
2022-12-25T19:07:07.575Z,36.11
2022-12-25T19:10:10.449Z,36.15
2022-12-25T19:13:12.651Z,36.25
2022-12-25T19:16:15.232Z,36.06
2022-12-25T19:19:17.797Z,36.23
2022-12-25T19:22:20.011Z,35.84
2022-12-25T19:25:22.125Z,36.32
2022-12-25T19:28:25.134Z,36.13
2022-12-25T19:31:30.034Z,36.22
2022-12-25T19:34:32.196Z,36.29
2022-12-25T19:37:34.323Z,36.02
2022-12-25T19:40:40.339Z,36.01
2022-12-25T19:43:44.048Z,35.94
2022-12-25T19:46:46.251Z,36.15
2022-12-25T19:49:52.880Z,36.11
2022-12-25T19:52:55.596Z,36.03
2022-12-25T19:56:01.524Z,36.28
2022-12-25T19:59:03.725Z,36.24
2022-12-25T20:02:06.091Z,36.31
2022-12-25T20:05:08.348Z,36.33
2022-12-25T20:08:10.600Z,36.03
2022-12-25T20:11:12.909Z,36.23
2022-12-25T20:14:16.631Z,36.13
2022-12-25T20:17:18.859Z,36.11
2022-12-25T20:20:21.109Z,36.04
2022-12-25T20:23:23.289Z,36.17
2022-12-25T20:26:28.915Z,36.08
2022-12-25T20:29:31.078Z,36.31
2022-12-25T20:32:33.235Z,36.18
2022-12-25T20:35:35.590Z,36.16
2022-12-25T20:38:37.749Z,36.08
2022-12-25T20:41:40.524Z,36.21
2022-12-25T20:44:43.141Z,36.01
2022-12-25T20:47:45.312Z,36.27
2022-12-25T20:50:47.514Z,36.12
2022-12-25T20:53:50.084Z,36.32
2022-12-25T20:56:52.223Z,36.23
2022-12-25T20:59:54.512Z,36.19
2022-12-25T21:02:56.689Z,36.19
2022-12-25T21:05:59.705Z,36.28
2022-12-25T21:09:02.262Z,36.03
2022-12-25T21:12:04.631Z,36.27
2022-12-25T21:15:13.346Z,36.31
2022-12-25T21:18:19.175Z,36.23
2022-12-25T21:21:22.070Z,36.17
2022-12-25T21:24:24.319Z,36.14
2022-12-25T21:27:26.459Z,36.02
2022-12-25T21:30:28.610Z,36.27
2022-12-25T21:33:49.425Z,36.13
2022-12-25T21:36:51.757Z,36.04
2022-12-25T21:39:53.914Z,36.35
2022-12-25T21:42:56.180Z,36.08
2022-12-25T21:46:05.381Z,36.21
2022-12-25T21:49:07.606Z,36.13
2022-12-25T21:52:09.793Z,36.18
2022-12-25T21:55:11.967Z,36.14
2022-12-25T21:58:14.099Z,36.27
2022-12-25T22:01:16.799Z,36.39
2022-12-25T22:04:21.598Z,36.35
2022-12-25T22:07:23.798Z,36.25
2022-12-25T22:10:26.061Z,36.35
2022-12-25T22:13:47.073Z,36.26
2022-12-25T22:17:07.524Z,36.50
2022-12-25T22:20:12.699Z,36.40
2022-12-25T22:23:16.177Z,36.30
2022-12-25T22:26:21.059Z,36.42
2022-12-25T22:29:23.403Z,36.35
2022-12-25T22:32:25.885Z,36.35
2022-12-25T22:35:28.047Z,36.37
2022-12-25T22:38:30.543Z,36.40
2022-12-25T22:41:33.776Z,36.23
2022-12-25T22:44:36.395Z,36.30
2022-12-25T22:47:38.667Z,36.28
2022-12-25T22:50:40.851Z,36.24
2022-12-25T22:53:42.973Z,36.35
2022-12-25T22:56:47.843Z,36.22
2022-12-25T22:59:51.969Z,36.49
2022-12-25T23:02:54.294Z,36.21
2022-12-25T23:05:56.984Z,36.32
2022-12-25T23:08:59.734Z,36.23
2022-12-25T23:12:01.900Z,36.46
2022-12-25T23:15:05.870Z,36.36
2022-12-25T23:18:27.865Z,36.39
2022-12-25T23:21:49.076Z,36.27
2022-12-25T23:25:09.711Z,36.38
2022-12-25T23:28:11.951Z,36.50
2022-12-25T23:31:14.399Z,36.16
2022-12-25T23:34:16.580Z,36.36
2022-12-25T23:37:19.196Z,36.58
2022-12-25T23:40:21.426Z,36.35
2022-12-25T23:43:23.619Z,36.43
2022-12-25T23:46:25.844Z,36.32
2022-12-25T23:49:28.377Z,36.30
2022-12-25T23:52:30.454Z,36.46
2022-12-25T23:55:33.517Z,36.28
2022-12-25T23:58:35.757Z,36.40
